Time;durP1;ratioP1;P1;durP2;ratioP2;P2;SDS_P1;SDS_P2;PMS_P1;PMS_P2;Temp;Humidity;BMP_temperature;BMP_pressure;BME280_temperature;BME280_humidity;BME280_pressure;Samples;Min_cycle;Max_cycle;Signal;HPM_P1;HPM_P2
2022/04/16 00:02:07;;;;;;;16.40;10.30;;;;;;;8.12;81.77;98767.92;105631;1282;25332;-74
2022/04/16 00:04:34;;;;;;;14.90;10.80;;;;;;;8.12;81.52;98770.46;105258;1283;138508;-76
2022/04/16 00:07:00;;;;;;;14.80;11.30;;;;;;;8.10;81.59;98768.61;105510;1282;24454;-75
2022/04/16 00:09:28;;;;;;;17.10;12.20;;;;;;;8.08;81.64;98766.54;105639;1282;25279;-75
2022/04/16 00:11:55;;;;;;;15.90;11.30;;;;;;;8.08;81.90;98768.77;105505;1282;138237;-75
2022/04/16 00:14:23;;;;;;;15.40;11.60;;;;;;;8.08;81.65;98769.08;105391;1284;22986;-74
2022/04/16 00:16:50;;;;;;;16.00;11.70;;;;;;;8.08;82.16;98767.58;105383;1284;140097;-74
2022/04/16 00:19:32;;;;;;;14.60;10.90;;;;;;;8.11;81.99;98769.64;105509;1285;22570;-75
2022/04/16 00:22:02;;;;;;;14.70;10.80;;;;;;;8.12;81.80;98764.71;105389;1282;138168;-75
2022/04/16 00:24:29;;;;;;;15.90;12.30;;;;;;;8.12;81.77;98766.96;105600;1282;24273;-74
2022/04/16 00:26:56;;;;;;;14.50;9.80;;;;;;;8.13;81.94;98773.21;105602;1282;22661;-74
2022/04/16 00:29:24;;;;;;;14.50;10.50;;;;;;;8.09;81.36;98771.41;105494;1282;138176;-76
2022/04/16 00:31:51;;;;;;;12.70;8.80;;;;;;;8.05;81.49;98771.29;105811;1282;24244;-74
2022/04/16 00:34:18;;;;;;;15.40;10.50;;;;;;;8.00;82.02;98772.52;105690;1282;138333;-75
2022/04/16 00:36:45;;;;;;;14.90;11.00;;;;;;;7.98;82.45;98777.00;105508;1282;24321;-75
2022/04/16 00:39:12;;;;;;;13.70;10.30;;;;;;;7.93;82.23;98770.34;105615;1282;22572;-77
2022/04/16 00:41:40;;;;;;;15.90;10.60;;;;;;;7.92;82.54;98772.75;105610;1282;139217;-75
2022/04/16 00:44:07;;;;;;;14.60;10.20;;;;;;;7.92;82.73;98772.70;105514;1283;22544;-75
2022/04/16 00:46:34;;;;;;;13.60;9.00;;;;;;;7.93;82.45;98773.66;105446;1284;138958;-75
2022/04/16 00:49:01;;;;;;;12.30;9.00;;;;;;;7.93;82.61;98777.50;105541;1284;23002;-75
2022/04/16 00:51:29;;;;;;;11.00;7.80;;;;;;;7.90;82.67;98776.73;105566;1283;22562;-75
2022/04/16 00:53:57;;;;;;;10.70;7.60;;;;;;;7.84;83.14;98782.28;105590;1282;137967;-75
2022/04/16 00:56:24;;;;;;;9.10;6.70;;;;;;;7.78;83.65;98784.73;105778;1282;24458;-75
2022/04/16 00:58:51;;;;;;;9.90;6.90;;;;;;;7.73;83.92;98785.27;105773;1282;138117;-74
2022/04/16 01:01:18;;;;;;;10.00;7.30;;;;;;;7.70;84.40;98788.48;105765;1283;22685;-75
2022/04/16 01:03:47;;;;;;;7.50;5.90;;;;;;;7.67;84.66;98786.10;105644;1282;22601;-74
2022/04/16 01:06:16;;;;;;;6.90;4.50;;;;;;;7.63;85.37;98787.22;105517;1284;137519;-74
2022/04/16 01:08:48;;;;;;;7.00;5.00;;;;;;;7.55;85.87;98795.01;105523;1282;22544;-74
2022/04/16 01:11:15;;;;;;;6.30;4.60;;;;;;;7.45;86.19;98797.11;105364;1284;138113;-74
2022/04/16 01:13:47;;;;;;;6.70;5.10;;;;;;;7.35;85.96;98799.34;105351;1282;23974;-75
2022/04/16 01:16:13;;;;;;;6.50;4.60;;;;;;;7.20;86.39;98798.06;105281;1282;139656;-77
2022/04/16 01:18:47;;;;;;;6.60;5.10;;;;;;;7.11;86.46;98799.35;105323;1282;22550;-76
2022/04/16 01:21:14;;;;;;;5.60;4.00;;;;;;;7.04;86.47;98795.84;105154;1282;24272;-76
2022/04/16 01:23:44;;;;;;;5.10;4.60;;;;;;;6.98;86.55;98794.85;105338;1282;138845;-76
2022/04/16 01:26:11;;;;;;;5.30;4.60;;;;;;;6.90;86.85;98797.63;105613;1282;25338;-76
2022/04/16 01:28:38;;;;;;;4.90;4.10;;;;;;;6.81;86.88;98795.06;105100;1284;138397;-76
2022/04/16 01:31:04;;;;;;;5.40;4.80;;;;;;;6.73;87.13;98796.17;105456;1284;23872;-76
2022/04/16 01:33:32;;;;;;;4.80;4.00;;;;;;;6.65;87.09;98798.65;105665;1282;22713;-76
2022/04/16 01:35:59;;;;;;;5.70;4.10;;;;;;;6.60;87.11;98799.06;105637;1282;138148;-76
2022/04/16 01:38:40;;;;;;;5.60;3.90;;;;;;;6.53;87.29;98794.96;105612;1282;25379;-74
2022/04/16 01:41:07;;;;;;;4.90;3.60;;;;;;;6.45;87.51;98801.38;105614;1282;138795;-74
2022/04/16 01:43:34;;;;;;;5.50;3.90;;;;;;;6.39;87.57;98799.51;105574;1282;22547;-74
2022/04/16 01:46:02;;;;;;;3.60;3.10;;;;;;;6.35;87.76;98804.05;105533;1284;139110;-74
2022/04/16 01:48:30;;;;;;;4.00;3.40;;;;;;;6.30;87.87;98803.80;105680;1285;23107;-74
2022/04/16 01:50:58;;;;;;;3.30;3.00;;;;;;;6.26;88.19;98807.42;105712;1284;22551;-74
2022/04/16 01:53:25;;;;;;;3.80;3.30;;;;;;;6.23;88.22;98810.60;105546;1285;138007;-74
2022/04/16 01:55:52;;;;;;;3.20;2.80;;;;;;;6.19;88.20;98811.83;105672;1282;24455;-74
2022/04/16 01:58:20;;;;;;;3.60;2.70;;;;;;;6.17;88.48;98806.84;105666;1280;138285;-74
2022/04/16 02:00:48;;;;;;;4.90;3.50;;;;;;;6.16;88.80;98809.55;105840;1282;22546;-74
2022/04/16 02:03:16;;;;;;;4.10;3.10;;;;;;;6.14;88.82;98813.86;105640;1282;25437;-74
2022/04/16 02:05:43;;;;;;;3.50;2.70;;;;;;;6.15;88.99;98817.23;105559;1282;138454;-74
2022/04/16 02:08:10;;;;;;;3.70;2.90;;;;;;;6.15;89.08;98813.54;105528;1285;22543;-74
2022/04/16 02:10:37;;;;;;;3.50;2.80;;;;;;;6.15;88.82;98814.58;105487;1285;138187;-74
2022/04/16 02:13:05;;;;;;;3.80;3.00;;;;;;;6.12;89.13;98813.29;105192;1285;22548;-74
2022/04/16 02:15:31;;;;;;;2.50;2.30;;;;;;;6.08;89.19;98813.02;105577;1282;22543;-74
2022/04/16 02:17:58;;;;;;;3.40;2.80;;;;;;;6.07;89.20;98817.37;105584;1282;138219;-74
2022/04/16 02:20:25;;;;;;;2.70;2.50;;;;;;;6.05;89.27;98816.02;105633;1284;25314;-74
2022/04/16 02:22:52;;;;;;;2.50;2.20;;;;;;;6.03;89.54;98817.95;105710;1282;138881;-74
2022/04/16 02:25:20;;;;;;;4.50;2.40;;;;;;;5.99;89.70;98816.11;105580;1282;24358;-75
2022/04/16 02:27:47;;;;;;;2.50;2.30;;;;;;;5.97;89.86;98820.92;105711;1284;24391;-74
2022/04/16 02:30:16;;;;;;;3.90;2.40;;;;;;;5.94;89.90;98819.64;105603;1284;138442;-75
2022/04/16 02:32:47;;;;;;;3.10;2.20;;;;;;;5.93;89.94;98822.35;105701;1284;25373;-75
2022/04/16 02:35:17;;;;;;;3.40;2.30;;;;;;;5.89;89.85;98825.41;105459;1282;138217;-74
2022/04/16 02:37:45;;;;;;;2.10;1.90;;;;;;;5.86;89.68;98824.08;105655;1282;23929;-74
2022/04/16 02:40:13;;;;;;;2.20;1.90;;;;;;;5.84;89.76;98824.99;105632;1282;138964;-75
2022/04/16 02:42:43;;;;;;;2.10;1.80;;;;;;;5.81;89.69;98829.44;105705;1281;23970;-75
2022/04/16 02:47:54;;;;;;;4.90;2.40;;;;;;;5.77;89.72;98835.09;105213;1285;139278;-74
2022/04/16 02:50:25;;;;;;;3.20;2.40;;;;;;;5.74;89.63;98835.98;105430;1284;24277;-75
2022/04/16 02:52:53;;;;;;;3.20;2.60;;;;;;;5.71;89.70;98834.00;105487;1284;138057;-75
2022/04/16 02:55:20;;;;;;;2.90;2.20;;;;;;;5.71;89.53;98833.11;105569;1284;25383;-75
2022/04/16 02:57:49;;;;;;;2.30;1.90;;;;;;;5.70;89.46;98839.77;105739;1282;22548;-74
2022/04/16 03:00:20;;;;;;;3.40;2.30;;;;;;;5.67;89.00;98838.86;105635;1282;137768;-75
2022/04/16 03:02:48;;;;;;;2.00;1.80;;;;;;;5.65;88.97;98843.38;105703;1280;25379;-74
2022/04/16 03:05:15;;;;;;;2.30;1.60;;;;;;;5.60;88.72;98848.97;105557;1282;138050;-74
2022/04/16 03:07:42;;;;;;;2.20;1.80;;;;;;;5.56;88.74;98850.66;105671;1284;22728;-75
2022/04/16 03:10:09;;;;;;;1.70;1.60;;;;;;;5.51;88.37;98846.78;105239;1285;138277;-75
2022/04/16 03:12:40;;;;;;;2.10;1.80;;;;;;;5.44;87.90;98855.36;105390;1284;24330;-75
2022/04/16 03:17:49;;;;;;;1.90;1.50;;;;;;;5.36;88.04;98856.36;105528;1282;138164;-75
2022/04/16 03:20:16;;;;;;;1.50;1.20;;;;;;;5.33;88.02;98860.13;105626;1282;22568;-74
2022/04/16 03:22:43;;;;;;;2.20;1.50;;;;;;;5.30;87.83;98861.81;105561;1282;138174;-75
2022/04/16 03:25:10;;;;;;;1.30;1.20;;;;;;;5.28;87.96;98864.55;105706;1282;25274;-75
2022/04/16 03:27:37;;;;;;;1.50;1.40;;;;;;;5.25;87.83;98864.92;105486;1284;25266;-74
2022/04/16 03:30:18;;;;;;;2.40;1.10;;;;;;;5.23;87.85;98867.98;105388;1284;137696;-74
2022/04/16 03:32:59;;;;;;;1.30;1.10;;;;;;;5.20;87.59;98873.86;105681;1284;22582;-74
2022/04/16 03:35:26;;;;;;;1.30;1.10;;;;;;;5.19;87.66;98883.00;105469;1284;138748;-74
2022/04/16 03:37:54;;;;;;;1.50;1.20;;;;;;;5.17;87.92;98881.66;105435;1282;22601;-75
2022/04/16 03:40:24;;;;;;;1.10;0.90;;;;;;;5.14;87.35;98883.26;105559;1282;138582;-75
2022/04/16 03:43:00;;;;;;;;;;;;;;;5.11;87.51;98889.35;105603;1283;22791;-75
2022/04/16 03:45:31;;;;;;;0.90;0.80;;;;;;;5.09;87.50;98891.63;105746;1282;25321;-75
2022/04/16 03:48:00;;;;;;;1.10;1.00;;;;;;;5.08;87.81;98890.20;105496;1282;139450;-75
2022/04/16 03:50:30;;;;;;;1.80;1.50;;;;;;;5.07;87.75;98895.16;105607;1284;22646;-77
2022/04/16 03:52:59;;;;;;;1.60;1.50;;;;;;;5.04;87.77;98898.36;105354;1284;139474;-75
2022/04/16 04:01:08;;;;;;;2.10;1.90;;;;;;;4.98;88.03;98906.96;105686;1282;22598;-77
2022/04/16 04:03:36;;;;;;;1.80;1.60;;;;;;;4.97;88.30;98911.06;105731;1282;24285;-74
2022/04/16 04:06:04;;;;;;;2.00;1.80;;;;;;;4.96;88.44;98911.39;105539;1283;138076;-74
2022/04/16 04:08:33;;;;;;;2.90;2.30;;;;;;;4.97;88.83;98917.04;105892;1282;25266;-75
2022/04/16 04:11:01;;;;;;;3.00;2.30;;;;;;;4.96;88.94;98923.75;105504;1284;138172;-77
2022/04/16 04:13:28;;;;;;;2.50;2.20;;;;;;;4.95;88.96;98924.75;105574;1284;22547;-74
2022/04/16 04:15:55;;;;;;;2.30;2.10;;;;;;;4.96;89.26;98927.38;105615;1284;22657;-74
2022/04/16 04:18:23;;;;;;;2.10;1.90;;;;;;;4.96;89.18;98926.63;105739;1283;138086;-74
2022/04/16 04:20:51;;;;;;;2.90;2.40;;;;;;;4.96;89.42;98932.98;105664;1282;24237;-74
2022/04/16 04:23:22;;;;;;;5.20;2.00;;;;;;;4.93;89.06;98934.74;105640;1282;138034;-74
2022/04/16 04:26:03;;;;;;;3.30;2.00;;;;;;;4.91;89.14;98942.58;105634;1282;22564;-74
2022/04/16 04:28:30;;;;;;;2.50;2.10;;;;;;;4.87;89.11;98948.81;105416;1282;138583;-75
2022/04/16 04:30:57;;;;;;;2.30;2.00;;;;;;;4.84;89.27;98956.63;105584;1284;22550;-74
2022/04/16 04:33:24;;;;;;;2.00;1.80;;;;;;;4.82;89.32;98960.61;105509;1284;22768;-74
2022/04/16 04:35:51;;;;;;;4.40;2.20;;;;;;;4.80;89.37;98967.89;105494;1284;137845;-74
2022/04/16 04:38:19;;;;;;;2.70;2.10;;;;;;;4.78;89.40;98970.04;105903;1282;23982;-74
2022/04/16 04:40:45;;;;;;;2.10;1.80;;;;;;;4.76;89.37;98973.43;105506;1283;138617;-75
2022/04/16 04:43:13;;;;;;;1.60;1.50;;;;;;;4.76;89.11;98979.91;105621;1282;22560;-74
2022/04/16 04:45:40;;;;;;;1.60;1.30;;;;;;;4.75;88.94;98989.00;105721;1282;23209;-75
2022/04/16 04:48:07;;;;;;;0.90;0.90;;;;;;;4.73;88.06;98991.08;105567;1282;137969;-75
2022/04/16 04:50:36;;;;;;;0.90;0.90;;;;;;;4.68;87.91;98988.97;105367;1285;23229;-74
2022/04/16 04:53:03;;;;;;;3.00;1.20;;;;;;;4.63;87.67;98993.58;105440;1284;137837;-74
2022/04/16 04:55:30;;;;;;;2.50;1.20;;;;;;;4.56;87.79;98998.73;105448;1284;22573;-75
2022/04/16 04:57:57;;;;;;;1.60;1.10;;;;;;;4.52;87.91;99001.23;105721;1283;22542;-75
2022/04/16 05:00:24;;;;;;;0.90;0.70;;;;;;;4.48;88.04;99002.50;105725;1282;138285;-75
2022/04/16 05:02:51;;;;;;;1.50;1.40;;;;;;;4.43;88.00;99007.73;105751;1282;24318;-75
2022/04/16 05:05:18;;;;;;;1.20;0.90;;;;;;;4.41;88.28;99013.93;105557;1282;137927;-75
2022/04/16 05:07:45;;;;;;;1.30;1.10;;;;;;;4.40;88.36;99016.25;105533;1284;24310;-75
2022/04/16 05:10:12;;;;;;;1.10;1.00;;;;;;;4.38;88.51;99022.60;105577;1284;138316;-75
2022/04/16 05:12:39;;;;;;;1.00;0.90;;;;;;;4.35;88.44;99023.62;105601;1284;24237;-75
2022/04/16 05:15:07;;;;;;;1.40;1.00;;;;;;;4.33;88.38;99031.77;105659;1284;23888;-75
2022/04/16 05:17:37;;;;;;;1.30;1.00;;;;;;;4.32;88.25;99031.05;105688;1284;138632;-75
2022/04/16 05:20:09;;;;;;;1.60;0.90;;;;;;;4.31;88.16;99033.54;105920;1284;29295;-75
2022/04/16 05:22:36;;;;;;;1.20;1.10;;;;;;;4.31;88.34;99037.06;105615;1284;138292;-75
2022/04/16 05:25:03;;;;;;;1.00;0.80;;;;;;;4.32;88.42;99043.09;105719;1282;23010;-75
2022/04/16 05:27:30;;;;;;;0.90;0.80;;;;;;;4.35;88.21;99043.86;105779;1282;25296;-75
2022/04/16 05:30:07;;;;;;;1.50;1.40;;;;;;;4.36;88.27;99045.96;105622;1281;138335;-75
2022/04/16 05:32:40;;;;;;;0.90;0.80;;;;;;;4.36;87.80;99048.52;105865;1281;25392;-76
2022/04/16 05:35:09;;;;;;;1.20;0.80;;;;;;;4.33;87.59;99053.52;105621;1281;138058;-75
2022/04/16 05:37:36;;;;;;;0.80;0.70;;;;;;;4.32;87.88;99056.06;105629;1283;23892;-75
2022/04/16 05:40:06;;;;;;;1.30;1.00;;;;;;;4.32;87.89;99057.01;105654;1284;138191;-75
2022/04/16 05:42:37;;;;;;;;;;;;;;;4.31;88.03;99057.13;105718;1283;22551;-75
2022/04/16 05:45:05;;;;;;;1.90;1.10;;;;;;;4.30;88.17;99061.52;105621;1282;24336;-75
2022/04/16 05:47:32;;;;;;;3.70;1.60;;;;;;;4.29;88.26;99060.92;105621;1284;138308;-75
2022/04/16 05:50:14;;;;;;;1.60;1.50;;;;;;;4.27;88.07;99064.89;105321;1284;22551;-75
2022/04/16 05:52:41;;;;;;;1.90;1.70;;;;;;;4.28;88.40;99067.70;105644;1284;138219;-75
2022/04/16 05:55:09;;;;;;;2.50;1.70;;;;;;;4.29;88.54;99071.59;105699;1284;22542;-75
2022/04/16 05:57:37;;;;;;;2.70;1.70;;;;;;;4.32;88.69;99073.29;105579;1284;24317;-75
2022/04/16 06:00:05;;;;;;;1.70;1.60;;;;;;;4.35;88.87;99073.64;105347;1284;137510;-75
2022/04/16 06:02:56;;;;;;;2.40;2.00;;;;;;;4.37;89.02;99078.95;105692;1284;22557;-75
2022/04/16 06:05:36;;;;;;;2.30;2.00;;;;;;;4.40;89.05;99079.14;105578;1283;137907;-76
2022/04/16 06:08:04;;;;;;;1.90;1.80;;;;;;;4.44;89.19;99083.57;105633;1284;25265;-75
2022/04/16 06:10:31;;;;;;;3.50;3.10;;;;;;;4.45;89.35;99086.54;105409;1284;138261;-76
2022/04/16 06:12:58;;;;;;;3.60;2.80;;;;;;;4.44;89.72;99086.97;105657;1284;22635;-76
2022/04/16 06:15:25;;;;;;;3.10;2.70;;;;;;;4.42;89.79;99095.05;105678;1281;25239;-75
2022/04/16 06:17:52;;;;;;;3.20;2.90;;;;;;;4.41;90.04;99100.80;105503;1284;138123;-76
2022/04/16 06:20:19;;;;;;;4.20;3.80;;;;;;;4.38;89.91;99105.30;105816;1284;22558;-76
2022/04/16 06:22:45;;;;;;;5.50;4.00;;;;;;;4.38;90.17;99103.29;105590;1282;138696;-76
2022/04/16 06:25:12;;;;;;;4.10;3.50;;;;;;;4.41;90.45;99102.42;105589;1284;22575;-76
2022/04/16 06:27:39;;;;;;;5.20;3.60;;;;;;;4.43;90.47;99106.97;105608;1284;25502;-76
2022/04/16 06:30:09;;;;;;;4.70;3.40;;;;;;;4.44;90.34;99106.36;105635;1284;138340;-76
2022/04/16 06:32:36;;;;;;;;;;;;;;;4.43;90.23;99114.94;105676;1282;22564;-76
2022/04/16 06:35:05;;;;;;;4.00;3.60;;;;;;;4.41;90.17;99113.20;105602;1284;124483;-76
2022/04/16 06:37:33;;;;;;;5.10;3.70;;;;;;;4.39;90.25;99112.52;105825;1282;22562;-76
2022/04/16 06:40:14;;;;;;;3.60;3.30;;;;;;;4.36;90.15;99119.47;105455;1284;138301;-76
2022/04/16 06:42:42;;;;;;;3.20;2.90;;;;;;;4.34;90.19;99119.05;105670;1284;22548;-76
2022/04/16 06:45:23;;;;;;;4.10;3.70;;;;;;;4.32;90.21;99120.27;105745;1284;22550;-76
2022/04/16 06:47:51;;;;;;;4.30;3.60;;;;;;;4.28;90.36;99122.02;105367;1284;138229;-76
2022/04/16 06:50:18;;;;;;;5.00;3.30;;;;;;;4.25;90.50;99122.42;105549;1282;24274;-76
2022/04/16 06:52:59;;;;;;;4.60;3.70;;;;;;;4.21;90.67;99128.22;105369;1284;138173;-76
2022/04/16 06:55:26;;;;;;;6.70;4.00;;;;;;;4.20;90.92;99126.38;105631;1283;22557;-75
2022/04/16 06:58:07;;;;;;;6.00;4.30;;;;;;;4.22;90.92;99131.30;105893;1284;138371;-75
2022/04/16 07:00:34;;;;;;;5.50;4.00;;;;;;;4.27;91.13;99132.73;106392;1284;24550;-75
2022/04/16 07:03:01;;;;;;;4.20;3.50;;;;;;;4.33;91.06;99136.30;105812;1284;24275;-75
2022/04/16 07:05:42;;;;;;;3.40;3.00;;;;;;;4.38;90.89;99139.02;105668;1284;138793;-75
2022/04/16 07:08:09;;;;;;;3.90;3.10;;;;;;;4.41;90.44;99137.44;105619;1284;22576;-75
2022/04/16 07:10:50;;;;;;;2.80;2.50;;;;;;;4.44;89.96;99144.52;105393;1284;138271;-75
2022/04/16 07:13:16;;;;;;;3.30;2.70;;;;;;;4.45;89.87;99146.19;105576;1282;24251;-75
2022/04/16 07:15:57;;;;;;;3.20;2.50;;;;;;;4.48;89.64;99149.05;105697;1283;22543;-75
2022/04/16 07:18:25;;;;;;;5.10;3.20;;;;;;;4.48;89.36;99152.08;105540;1283;137302;-75
2022/04/16 07:20:52;;;;;;;3.80;3.30;;;;;;;4.45;88.45;99156.42;105615;1282;22564;-75
2022/04/16 07:23:19;;;;;;;5.30;3.70;;;;;;;4.41;88.81;99157.94;105435;1284;138014;-78
2022/04/16 07:26:00;;;;;;;5.50;4.40;;;;;;;4.37;88.79;99162.40;105671;1284;22576;-75
2022/04/16 07:28:41;;;;;;;6.10;4.70;;;;;;;4.29;88.68;99164.05;106076;1282;387492;-75
2022/04/16 07:31:08;;;;;;;7.00;5.20;;;;;;;4.25;88.84;99171.08;106198;1283;25659;-75
2022/04/16 07:33:34;;;;;;;6.90;5.10;;;;;;;4.21;89.03;99177.70;105973;1282;22583;-75
2022/04/16 07:36:02;;;;;;;5.00;4.50;;;;;;;4.18;89.38;99181.77;106025;1282;137375;-75
2022/04/16 07:38:29;;;;;;;8.10;4.70;;;;;;;4.16;89.20;99184.48;105891;1281;25387;-75
2022/04/16 07:40:55;;;;;;;8.10;4.80;;;;;;;4.17;89.44;99190.54;106039;1283;138825;-75
2022/04/16 07:43:22;;;;;;;9.50;5.50;;;;;;;4.17;89.64;99190.52;106117;1282;24237;-75
2022/04/16 07:45:49;;;;;;;6.90;5.10;;;;;;;4.20;89.60;99194.86;105845;1284;25501;-75
2022/04/16 07:48:16;;;;;;;5.30;4.40;;;;;;;4.24;89.55;99196.77;105776;1284;137139;-75
2022/04/16 07:50:57;;;;;;;7.20;5.30;;;;;;;4.23;89.80;99200.54;105998;1283;22722;-75
2022/04/16 07:53:24;;;;;;;6.90;5.40;;;;;;;4.24;89.69;99204.38;105917;1283;137745;-75
2022/04/16 07:55:51;;;;;;;7.30;5.50;;;;;;;4.24;89.53;99208.92;105897;1282;22576;-75
2022/04/16 07:58:17;;;;;;;7.00;5.70;;;;;;;4.23;89.78;99208.63;105617;1284;138745;-75
2022/04/16 08:00:44;;;;;;;7.70;5.70;;;;;;;4.23;89.79;99211.23;106055;1284;24449;-75
2022/04/16 08:03:25;;;;;;;7.80;5.70;;;;;;;4.19;89.63;99213.21;105564;1284;30218;-75
2022/04/16 08:05:52;;;;;;;8.10;5.50;;;;;;;4.19;89.77;99215.21;105553;1284;138142;-75
2022/04/16 08:08:19;;;;;;;7.00;5.70;;;;;;;4.20;89.64;99214.25;105579;1284;24420;-75
2022/04/16 08:10:46;;;;;;;8.40;6.20;;;;;;;4.20;89.51;99219.59;105563;1284;138086;-75
2022/04/16 08:13:27;;;;;;;7.40;6.30;;;;;;;4.20;89.63;99221.23;105597;1282;22765;-75
2022/04/16 08:15:54;;;;;;;10.00;6.50;;;;;;;4.19;89.54;99222.47;105593;1284;25388;-75
2022/04/16 08:18:21;;;;;;;8.10;5.80;;;;;;;4.17;89.47;99227.70;105566;1282;137983;-75
2022/04/16 08:20:48;;;;;;;8.20;6.00;;;;;;;4.14;88.93;99232.02;105787;1282;25239;-75
2022/04/16 08:23:15;;;;;;;9.40;6.80;;;;;;;4.09;88.90;99235.47;105337;1283;138073;-75
2022/04/16 08:28:09;;;;;;;10.00;7.50;;;;;;;4.06;89.55;99238.02;105608;1282;138399;-75
2022/04/16 08:30:36;;;;;;;10.30;6.60;;;;;;;4.08;89.52;99241.08;105735;1283;22546;-75
2022/04/16 08:33:03;;;;;;;9.20;6.00;;;;;;;4.10;89.42;99241.73;105764;1283;22547;-75
2022/04/16 08:35:45;;;;;;;7.60;5.50;;;;;;;4.11;89.41;99242.25;105573;1283;137829;-75
2022/04/16 08:38:26;;;;;;;8.00;6.00;;;;;;;4.12;88.78;99238.16;105434;1284;24271;-75
2022/04/16 08:40:55;;;;;;;7.20;5.50;;;;;;;4.14;88.67;99240.73;105431;1283;137700;-75
2022/04/16 08:43:22;;;;;;;8.70;4.90;;;;;;;4.17;88.18;99243.47;105685;1284;25326;-75
2022/04/16 08:45:50;;;;;;;6.50;4.70;;;;;;;4.20;87.24;99248.40;105697;1282;22588;-75
2022/04/16 08:48:32;;;;;;;8.10;5.80;;;;;;;4.21;87.11;99250.41;105418;1283;137853;-75
2022/04/16 08:51:15;;;;;;;8.30;6.10;;;;;;;4.27;87.88;99252.44;105643;1284;22643;-75
2022/04/16 08:53:42;;;;;;;7.20;5.30;;;;;;;4.31;87.47;99256.11;105625;1282;137979;-75
2022/04/16 08:56:23;;;;;;;7.30;5.10;;;;;;;4.31;86.99;99258.69;105769;1282;25358;-75
2022/04/16 08:58:52;;;;;;;7.50;4.90;;;;;;;4.33;87.05;99251.29;105593;1282;138573;-75
2022/04/16 09:01:37;;;;;;;5.90;5.10;;;;;;;4.38;87.37;99260.44;105400;1283;22612;-75
2022/04/16 09:04:04;;;;;;;7.60;5.40;;;;;;;4.42;86.50;99261.91;105128;1283;22959;-75
2022/04/16 09:06:31;;;;;;;5.60;4.70;;;;;;;4.46;85.72;99263.92;105412;1282;137817;-75
2022/04/16 09:09:11;;;;;;;7.20;5.30;;;;;;;4.51;85.09;99265.16;105358;1282;22589;-75
2022/04/16 09:11:43;;;;;;;7.40;5.20;;;;;;;4.63;85.73;99260.96;105146;1284;137536;-75
2022/04/16 09:14:10;;;;;;;6.90;4.60;;;;;;;4.82;85.80;99257.67;105160;1282;25508;-75
2022/04/16 09:16:51;;;;;;;5.90;4.60;;;;;;;5.00;84.71;99259.20;105157;1283;138341;-75
2022/04/16 09:19:32;;;;;;;5.50;4.30;;;;;;;5.18;83.85;99259.11;105161;1284;24155;-75
2022/04/16 09:21:58;;;;;;;5.20;3.90;;;;;;;5.31;81.73;99260.17;105595;1283;23966;-75
2022/04/16 09:24:47;;;;;;;6.00;4.60;;;;;;;5.39;80.76;99260.88;105467;1282;137176;-75
2022/04/16 09:27:39;;;;;;;3.90;3.40;;;;;;;5.49;81.30;99258.03;105418;1283;22951;-75
2022/04/16 09:30:07;;;;;;;4.90;4.30;;;;;;;5.58;80.06;99264.64;105184;1282;138941;-75
2022/04/16 09:32:43;;;;;;;4.90;3.70;;;;;;;5.57;79.19;99261.02;105495;1282;24255;-75
2022/04/16 09:35:29;;;;;;;5.60;4.50;;;;;;;5.47;79.18;99257.85;105066;1282;138472;-74
2022/04/16 09:38:14;;;;;;;5.10;4.20;;;;;;;5.44;79.98;99269.20;106067;1281;22634;-75
2022/04/16 09:40:46;;;;;;;4.80;3.80;;;;;;;5.44;79.93;99278.77;105993;1282;138510;-76
2022/04/16 09:43:13;;;;;;;4.30;3.80;;;;;;;5.41;78.56;99279.34;105801;1282;22590;-75
2022/04/16 09:45:41;;;;;;;5.40;3.20;;;;;;;5.35;78.73;99281.57;106033;1282;25390;-75
2022/04/16 09:48:11;;;;;;;4.60;3.50;;;;;;;5.33;79.42;99288.91;105794;1283;137589;-75
2022/04/16 09:50:40;;;;;;;4.50;3.70;;;;;;;5.37;79.82;99292.77;105941;1282;22586;-75
2022/04/16 09:53:07;;;;;;;3.50;3.20;;;;;;;5.45;78.60;99293.08;106041;1282;137863;-73
2022/04/16 09:55:36;;;;;;;4.50;3.30;;;;;;;5.53;78.13;99303.21;105739;1282;22674;-73
2022/04/16 09:58:05;;;;;;;5.30;3.80;;;;;;;5.56;77.13;99306.98;105657;1282;24317;-75
2022/04/16 10:00:49;;;;;;;4.90;3.70;;;;;;;5.53;76.99;99310.23;105547;1282;137331;-75
2022/04/16 10:03:16;;;;;;;3.90;3.40;;;;;;;5.49;77.23;99317.23;105793;1282;24407;-75
2022/04/16 10:05:44;;;;;;;5.50;3.10;;;;;;;5.48;76.31;99320.41;105533;1282;137998;-75
2022/04/16 10:08:13;;;;;;;3.60;3.20;;;;;;;5.42;75.68;99319.88;105593;1282;24298;-75
2022/04/16 10:10:57;;;;;;;4.30;3.60;;;;;;;5.34;76.00;99321.78;105583;1282;137414;-75
2022/04/16 10:13:29;;;;;;;5.00;3.80;;;;;;;5.31;75.66;99326.14;105644;1282;22544;-75
2022/04/16 10:16:13;;;;;;;4.10;3.40;;;;;;;5.31;76.38;99332.23;105530;1284;22546;-75
2022/04/16 10:18:40;;;;;;;5.10;3.60;;;;;;;5.30;75.88;99335.54;105695;1282;137964;-74
2022/04/16 10:21:21;;;;;;;3.80;3.10;;;;;;;5.26;76.46;99336.64;105685;1282;23058;-75
2022/04/16 10:23:48;;;;;;;6.30;4.00;;;;;;;5.25;76.67;99339.46;105638;1282;138023;-75
2022/04/16 10:26:39;;;;;;;4.20;3.30;;;;;;;5.25;76.92;99342.90;105833;1282;30026;-75
2022/04/16 10:29:07;;;;;;;4.90;3.10;;;;;;;5.28;76.11;99344.19;105507;1282;137754;-74
2022/04/16 10:31:48;;;;;;;5.30;3.90;;;;;;;5.29;75.81;99344.34;105660;1281;24278;-75
2022/04/16 10:34:19;;;;;;;4.60;3.20;;;;;;;5.31;75.19;99347.52;105687;1282;22665;-74
2022/04/16 10:36:52;;;;;;;3.50;2.90;;;;;;;5.33;74.18;99342.42;105533;1282;137579;-74
2022/04/16 10:39:24;;;;;;;3.20;2.60;;;;;;;5.42;74.11;99343.69;105798;1282;22562;-74
2022/04/16 10:41:55;;;;;;;4.30;3.30;;;;;;;5.57;73.96;99340.45;105713;1282;137999;-74
2022/04/16 10:44:24;;;;;;;3.00;2.70;;;;;;;5.70;73.75;99342.67;105685;1281;25380;-75
2022/04/16 10:46:53;;;;;;;4.50;2.90;;;;;;;5.86;71.93;99341.34;105385;1282;137376;-75
2022/04/16 10:49:40;;;;;;;4.30;3.20;;;;;;;6.00;71.68;99338.59;105408;1284;24072;-75
2022/04/16 10:52:23;;;;;;;3.50;2.70;;;;;;;6.11;68.58;99338.04;105616;1284;22723;-75
2022/04/16 10:55:01;;;;;;;4.40;2.10;;;;;;;6.14;67.92;99333.86;105676;1282;137148;-75
2022/04/16 10:57:28;;;;;;;4.40;2.70;;;;;;;6.16;67.57;99339.00;105624;1282;30897;-75
2022/04/16 11:00:12;;;;;;;3.10;2.40;;;;;;;6.27;69.02;99338.99;105552;1283;137524;-75
2022/04/16 11:02:39;;;;;;;2.50;2.20;;;;;;;6.55;70.88;99334.80;105686;1282;22547;-75
2022/04/16 11:05:20;;;;;;;3.90;2.10;;;;;;;6.88;70.05;99335.92;105463;1282;137929;-75
2022/04/16 11:07:47;;;;;;;3.30;2.50;;;;;;;7.30;68.78;99329.17;105991;1281;22675;-75
2022/04/16 11:10:22;;;;;;;2.30;1.80;;;;;;;7.64;64.49;99324.70;106704;1281;23059;-75
2022/04/16 11:12:51;;;;;;;2.10;1.90;;;;;;;7.81;62.18;99323.00;105727;1282;138088;-74
2022/04/16 11:15:23;;;;;;;2.90;2.60;;;;;;;8.08;62.88;99321.66;106101;1282;25485;-74
2022/04/16 11:17:59;;;;;;;2.90;2.40;;;;;;;8.52;65.05;99318.55;105650;1282;137566;-75
2022/04/16 11:20:27;;;;;;;2.80;2.00;;;;;;;8.87;63.45;99319.45;105512;1282;24329;-74
2022/04/16 11:23:11;;;;;;;3.00;2.10;;;;;;;8.90;63.00;99314.48;105476;1282;138483;-74
2022/04/16 11:34:30;;;;;;;3.00;2.30;;;;;;;8.51;62.93;99335.09;105703;1282;22538;-75
2022/04/16 11:37:05;;;;;;;3.00;2.30;;;;;;;8.41;60.68;99343.36;105289;1284;137666;-74
2022/04/16 11:39:32;;;;;;;2.20;2.00;;;;;;;8.18;59.29;99335.69;105519;1282;24255;-75
2022/04/16 11:42:02;;;;;;;2.50;1.80;;;;;;;8.03;59.36;99341.19;105549;1282;137797;-75
2022/04/16 11:44:45;;;;;;;2.40;1.80;;;;;;;7.92;59.82;99337.71;105771;1282;25261;-75
2022/04/16 11:47:17;;;;;;;2.90;2.00;;;;;;;8.15;60.49;99336.30;105417;1282;137432;-74
2022/04/16 11:49:48;;;;;;;2.30;1.90;;;;;;;8.44;61.11;99339.65;105524;1282;25342;-74
2022/04/16 11:52:15;;;;;;;2.30;1.80;;;;;;;8.55;58.12;99338.82;105509;1283;24392;-75
2022/04/16 11:54:43;;;;;;;3.90;2.00;;;;;;;8.59;56.89;99337.68;105668;1282;137340;-75
2022/04/16 11:57:20;;;;;;;1.60;1.40;;;;;;;8.66;55.97;99336.25;105653;1282;22575;-75
2022/04/16 11:59:56;;;;;;;1.80;1.40;;;;;;;8.77;54.89;99333.89;105506;1283;137174;-75
2022/04/16 12:02:30;;;;;;;2.20;1.50;;;;;;;9.03;56.87;99340.95;105509;1282;24332;-74
2022/04/16 12:05:07;;;;;;;1.60;1.30;;;;;;;9.46;55.29;99332.84;105457;1283;137548;-74
2022/04/16 12:07:34;;;;;;;1.90;1.50;;;;;;;9.92;55.81;99329.75;105854;1282;24378;-75